createdAt,value
2018-12-01T00:02:31.888Z,6.54
2018-12-01T00:07:01.100Z,6.49
2018-12-01T00:11:17.063Z,6.44
2018-12-01T00:15:42.555Z,6.46
2018-12-01T00:19:51.517Z,6.41
2018-12-01T00:24:10.697Z,6.38
2018-12-01T00:28:21.816Z,6.35
2018-12-01T00:32:33.726Z,6.30
2018-12-01T00:36:56.417Z,6.29
2018-12-01T00:41:08.289Z,6.28
2018-12-01T00:45:20.500Z,6.23
2018-12-01T00:49:31.566Z,6.20
2018-12-01T00:53:47.367Z,6.16
2018-12-01T00:57:59.448Z,6.16
2018-12-01T01:02:30.354Z,6.13
2018-12-01T01:06:40.713Z,6.06
2018-12-01T01:10:55.331Z,5.99
2018-12-01T01:15:03.065Z,5.91
2018-12-01T01:19:15.728Z,5.85
2018-12-01T01:23:26.707Z,5.79
2018-12-01T01:27:36.043Z,5.71
2018-12-01T01:31:49.795Z,5.67
2018-12-01T01:36:07.063Z,5.59
2018-12-01T01:40:23.467Z,5.52
2018-12-01T01:44:36.110Z,5.47
2018-12-01T01:48:46.070Z,5.42
2018-12-01T01:52:53.453Z,5.54
2018-12-01T01:57:02.170Z,5.59
2018-12-01T02:01:15.948Z,5.62
2018-12-01T02:05:31.776Z,5.61
2018-12-01T02:09:57.988Z,5.62
2018-12-01T02:14:15.391Z,5.63
2018-12-01T02:18:27.983Z,5.63
2018-12-01T02:22:39.145Z,5.65
2018-12-01T02:26:56.616Z,5.71
2018-12-01T02:31:03.316Z,5.74
2018-12-01T02:35:29.163Z,5.84
2018-12-01T02:39:38.174Z,5.87
2018-12-01T02:43:47.294Z,5.86
2018-12-01T02:47:57.192Z,5.89
2018-12-01T02:52:13.627Z,5.89
2018-12-01T02:56:28.966Z,5.89
2018-12-01T03:00:46.058Z,5.87
2018-12-01T03:04:58.149Z,5.81
2018-12-01T03:09:08.489Z,5.82
2018-12-01T03:13:21.199Z,5.81
2018-12-01T03:17:32.421Z,5.78
2018-12-01T03:21:42.451Z,5.72
2018-12-01T03:25:51.893Z,5.74
2018-12-01T03:30:06.757Z,5.75
2018-12-01T03:34:17.766Z,5.71
2018-12-01T03:38:36.871Z,5.69
2018-12-01T03:42:48.688Z,5.69
2018-12-01T03:46:57.814Z,5.63
2018-12-01T03:51:04.806Z,5.63
2018-12-01T03:55:35.341Z,5.65
2018-12-01T03:59:50.843Z,5.63
2018-12-01T04:04:04.262Z,5.65
2018-12-01T04:08:20.712Z,5.76
2018-12-01T04:12:35.566Z,5.79
2018-12-01T04:16:50.983Z,5.86
2018-12-01T04:21:00.991Z,5.97
2018-12-01T04:25:16.089Z,6.26
2018-12-01T04:29:28.937Z,6.26
2018-12-01T04:33:39.318Z,6.29
2018-12-01T04:37:56.301Z,6.42
2018-12-01T04:42:05.086Z,6.36
2018-12-01T04:46:18.324Z,6.50
2018-12-01T04:50:30.499Z,6.49
2018-12-01T04:54:40.282Z,6.49
2018-12-01T04:58:57.422Z,6.58
2018-12-01T05:03:17.713Z,6.58
2018-12-01T05:07:24.580Z,6.63
2018-12-01T05:11:35.367Z,6.58
2018-12-01T05:15:48.930Z,6.50
2018-12-01T05:20:05.895Z,6.43
2018-12-01T05:24:22.982Z,6.33
2018-12-01T05:28:33.583Z,6.38
2018-12-01T05:32:52.177Z,6.48
2018-12-01T05:37:02.183Z,6.49
2018-12-01T05:41:14.438Z,6.52
2018-12-01T05:45:28.307Z,6.49
2018-12-01T05:49:42.817Z,6.50
2018-12-01T05:53:55.913Z,6.55
2018-12-01T05:58:16.135Z,6.58
2018-12-01T06:02:36.939Z,6.61
2018-12-01T06:06:50.470Z,6.50
2018-12-01T06:11:05.062Z,6.57
2018-12-01T06:15:14.532Z,6.64
2018-12-01T06:19:23.396Z,6.62
2018-12-01T06:23:40.151Z,6.63
2018-12-01T06:27:49.701Z,6.71
2018-12-01T06:32:03.148Z,6.78
2018-12-01T06:36:15.491Z,6.75
2018-12-01T06:40:25.315Z,6.83
2018-12-01T06:44:32.199Z,6.77
2018-12-01T06:48:43.052Z,6.81
2018-12-01T06:52:54.953Z,6.88
2018-12-01T06:57:09.344Z,6.86
2018-12-01T07:01:17.131Z,6.86
2018-12-01T07:05:30.675Z,6.92
2018-12-01T07:09:46.125Z,6.92
2018-12-01T07:13:56.999Z,6.93
2018-12-01T07:18:24.294Z,6.89
2018-12-01T07:22:40.072Z,6.90
2018-12-01T07:26:53.188Z,6.80
2018-12-01T07:31:10.373Z,6.73
2018-12-01T07:35:29.224Z,6.67
2018-12-01T07:39:36.638Z,6.62
2018-12-01T07:43:49.297Z,6.59
2018-12-01T07:48:03.757Z,6.56
2018-12-01T07:52:17.848Z,6.51
2018-12-01T07:56:33.067Z,6.51
2018-12-01T08:00:48.863Z,6.51
2018-12-01T08:05:08.948Z,6.49
2018-12-01T08:09:19.792Z,6.47
2018-12-01T08:13:36.875Z,6.43
2018-12-01T08:17:47.778Z,6.43
2018-12-01T08:22:11.592Z,6.43
2018-12-01T08:26:23.878Z,6.49
2018-12-01T08:30:42.275Z,6.52
2018-12-01T08:34:58.420Z,6.58
2018-12-01T08:39:17.579Z,6.68
2018-12-01T08:43:33.222Z,6.75
2018-12-01T08:47:44.227Z,6.87
2018-12-01T08:51:56.830Z,6.90
2018-12-01T08:56:09.419Z,6.86
2018-12-01T09:01:07.976Z,6.86
2018-12-01T09:05:18.683Z,6.93
2018-12-01T09:09:28.592Z,7.09
2018-12-01T09:13:44.739Z,7.36
2018-12-01T09:17:57.604Z,7.66
2018-12-01T09:22:11.267Z,7.86
2018-12-01T09:26:24.099Z,8.19
2018-12-01T09:30:39.459Z,8.49
2018-12-01T09:34:50.249Z,8.84
2018-12-01T09:39:01.224Z,8.74
2018-12-01T09:43:15.005Z,8.55
2018-12-01T09:47:31.260Z,8.69
2018-12-01T09:51:50.727Z,8.84
2018-12-01T09:56:09.865Z,8.75
2018-12-01T10:00:24.965Z,8.72
2018-12-01T10:04:36.668Z,8.71
2018-12-01T10:08:47.544Z,8.90
2018-12-01T10:13:00.229Z,8.90
2018-12-01T10:17:18.088Z,8.92
2018-12-01T10:21:35.493Z,8.99
2018-12-01T10:25:47.563Z,9.10
2018-12-01T10:29:59.628Z,9.20
2018-12-01T10:34:19.246Z,9.33
2018-12-01T10:38:27.953Z,9.27
2018-12-01T10:42:43.710Z,9.12
2018-12-01T10:46:57.101Z,9.19
2018-12-01T10:51:08.997Z,9.13
2018-12-01T10:55:57.475Z,8.99
2018-12-01T11:00:14.449Z,9.11
2018-12-01T11:04:46.308Z,8.99
2018-12-01T11:08:54.817Z,8.93
2018-12-01T11:13:03.780Z,8.94
2018-12-01T11:17:17.884Z,9.01
2018-12-01T11:21:33.368Z,9.06
2018-12-01T11:25:45.051Z,9.13
2018-12-01T11:30:04.314Z,9.22
2018-12-01T11:34:19.707Z,9.28
2018-12-01T11:38:35.206Z,9.32
2018-12-01T11:42:44.603Z,9.33
2018-12-01T11:46:52.969Z,9.36
2018-12-01T11:51:26.599Z,9.27
2018-12-01T11:55:42.157Z,9.32
2018-12-01T11:59:58.447Z,9.25
2018-12-01T12:04:16.102Z,9.24
2018-12-01T12:08:26.117Z,9.26
2018-12-01T12:12:41.804Z,9.22
2018-12-01T12:16:55.669Z,9.28
2018-12-01T12:21:11.050Z,9.29
2018-12-01T12:25:26.791Z,9.35
2018-12-01T12:29:43.989Z,9.32
2018-12-01T12:33:57.948Z,9.34
2018-12-01T12:38:13.768Z,9.35
2018-12-01T12:42:32.741Z,9.34
2018-12-01T12:46:48.776Z,9.32
2018-12-01T12:51:03.377Z,9.36
2018-12-01T12:55:13.278Z,9.31
2018-12-01T12:59:23.116Z,9.38
2018-12-01T13:03:43.944Z,9.49
2018-12-01T13:07:58.356Z,9.56
2018-12-01T13:12:15.919Z,9.57
2018-12-01T13:16:27.587Z,9.60
2018-12-01T13:20:38.338Z,9.68
2018-12-01T13:24:53.766Z,9.63
2018-12-01T13:29:07.173Z,9.60
2018-12-01T13:33:23.473Z,9.56
2018-12-01T13:37:39.020Z,9.49
2018-12-01T13:41:50.686Z,9.46
2018-12-01T13:46:08.340Z,9.44
2018-12-01T13:50:34.028Z,9.45
2018-12-01T13:54:49.381Z,9.48
2018-12-01T13:59:01.067Z,9.45
2018-12-01T14:03:11.111Z,9.45
2018-12-01T14:07:26.533Z,9.45
2018-12-01T14:11:37.800Z,9.43
2018-12-01T14:15:50.626Z,9.44
2018-12-01T14:20:01.341Z,9.44
2018-12-01T14:24:15.812Z,9.42
2018-12-01T14:28:32.164Z,9.42
2018-12-01T14:33:22.438Z,9.38
2018-12-01T14:37:35.045Z,9.25
2018-12-01T14:41:48.623Z,9.09
2018-12-01T14:46:01.445Z,8.94
2018-12-01T14:50:13.489Z,8.81
2018-12-01T14:54:31.587Z,8.69
2018-12-01T14:58:45.157Z,8.67
2018-12-01T15:02:56.427Z,8.64
2018-12-01T15:07:05.726Z,8.64
2018-12-01T15:11:13.008Z,8.55
2018-12-01T15:15:23.879Z,8.47
2018-12-01T15:19:35.430Z,8.47
2018-12-01T15:23:50.415Z,8.47
2018-12-01T15:27:58.024Z,8.38
2018-12-01T15:32:10.374Z,8.35
2018-12-01T15:36:23.815Z,8.33
2018-12-01T15:40:31.819Z,8.37
2018-12-01T15:44:47.779Z,8.35
2018-12-01T15:48:55.149Z,8.36
2018-12-01T15:53:06.991Z,8.37
2018-12-01T15:57:22.377Z,8.36
2018-12-01T16:01:31.525Z,8.31
2018-12-01T16:05:45.393Z,8.25
2018-12-01T16:09:57.988Z,8.14
2018-12-01T16:14:12.772Z,8.07
2018-12-01T16:18:25.028Z,8.05
2018-12-01T16:22:42.212Z,7.99
2018-12-01T16:26:53.927Z,8.01
2018-12-01T16:31:00.650Z,7.98
2018-12-01T16:35:14.209Z,7.98
2018-12-01T16:39:25.722Z,8.00
2018-12-01T16:43:40.623Z,8.02
2018-12-01T16:47:50.978Z,8.03
2018-12-01T16:52:05.351Z,8.11
2018-12-01T16:56:23.587Z,8.07
2018-12-01T17:00:36.307Z,8.08
2018-12-01T17:04:54.471Z,8.01
2018-12-01T17:09:05.368Z,7.96
2018-12-01T17:13:20.783Z,7.86
2018-12-01T17:17:49.409Z,7.86
2018-12-01T17:22:04.608Z,7.85
2018-12-01T17:26:16.321Z,7.85
2018-12-01T17:30:36.932Z,7.85
2018-12-01T17:34:55.953Z,7.87
2018-12-01T17:39:08.303Z,7.87
2018-12-01T17:43:26.810Z,7.88
2018-12-01T17:47:40.432Z,7.84
2018-12-01T17:51:59.654Z,7.89
2018-12-01T17:56:14.118Z,7.86
2018-12-01T18:00:30.107Z,7.87
2018-12-01T18:04:44.545Z,7.89
2018-12-01T18:09:03.512Z,7.92
2018-12-01T18:13:17.871Z,7.91
2018-12-01T18:17:31.922Z,7.94
2018-12-01T18:21:40.855Z,7.96
2018-12-01T18:25:56.322Z,7.91
2018-12-01T18:30:03.933Z,8.00
2018-12-01T18:34:16.896Z,8.02
2018-12-01T18:38:28.949Z,7.99
2018-12-01T18:42:47.843Z,8.01
2018-12-01T18:46:57.765Z,8.04
2018-12-01T18:51:09.327Z,8.07
2018-12-01T18:55:20.691Z,8.07
2018-12-01T18:59:33.768Z,8.10
2018-12-01T19:03:46.697Z,8.09
2018-12-01T19:07:59.270Z,8.11
2018-12-01T19:12:12.306Z,8.14
2018-12-01T19:16:23.085Z,8.12
2018-12-01T19:20:38.546Z,8.17
2018-12-01T19:24:50.416Z,8.19
2018-12-01T19:29:00.276Z,8.22
2018-12-01T19:33:21.158Z,8.22
2018-12-01T19:37:36.522Z,8.24
2018-12-01T19:41:54.024Z,8.22
2018-12-01T19:46:04.211Z,8.27
2018-12-01T19:50:30.118Z,8.28
2018-12-01T19:54:49.064Z,8.31
2018-12-01T19:59:00.650Z,8.35
2018-12-01T20:03:17.352Z,8.42
2018-12-01T20:07:33.811Z,8.49
2018-12-01T20:11:42.736Z,8.51
2018-12-01T20:15:52.301Z,8.58
2018-12-01T20:20:06.152Z,8.68
2018-12-01T20:24:17.108Z,8.68
2018-12-01T20:28:29.953Z,8.70
2018-12-01T20:32:37.378Z,8.75
2018-12-01T20:36:53.575Z,8.80
2018-12-01T20:41:05.350Z,8.88
2018-12-01T20:45:25.074Z,8.87
2018-12-01T20:49:37.754Z,8.92
2018-12-01T20:53:58.515Z,8.96
2018-12-01T20:58:09.053Z,9.00
2018-12-01T21:02:34.181Z,8.99
2018-12-01T21:06:42.621Z,9.05
2018-12-01T21:10:59.487Z,9.13
2018-12-01T21:15:12.774Z,9.17
2018-12-01T21:19:33.204Z,9.19
2018-12-01T21:23:47.654Z,9.17
2018-12-01T21:28:02.099Z,9.19
2018-12-01T21:32:14.408Z,9.21
2018-12-01T21:36:23.802Z,9.20
2018-12-01T21:40:40.867Z,9.29
2018-12-01T21:44:56.788Z,9.26
2018-12-01T21:49:06.689Z,9.23
2018-12-01T21:53:25.229Z,9.21
2018-12-01T21:57:32.838Z,9.24
2018-12-01T22:01:49.030Z,9.17
2018-12-01T22:06:06.192Z,9.15
2018-12-01T22:10:17.608Z,9.17
2018-12-01T22:15:32.470Z,9.16
2018-12-01T22:19:49.617Z,9.16
2018-12-01T22:24:06.725Z,9.20
2018-12-01T22:28:18.178Z,9.17
2018-12-01T22:32:28.467Z,9.17
2018-12-01T22:36:47.701Z,9.15
2018-12-01T22:40:58.633Z,9.18
2018-12-01T22:45:13.222Z,9.22
2018-12-01T22:49:22.669Z,9.24
2018-12-01T22:53:48.683Z,9.29
2018-12-01T22:58:29.577Z,9.33
2018-12-01T23:02:46.884Z,9.33
2018-12-01T23:06:56.747Z,9.39
2018-12-01T23:11:12.628Z,9.42
2018-12-01T23:15:21.225Z,9.50
2018-12-01T23:19:28.142Z,9.57
2018-12-01T23:23:39.051Z,9.57
2018-12-01T23:27:50.053Z,9.63
2018-12-01T23:32:01.867Z,9.59
2018-12-01T23:36:10.696Z,9.58
2018-12-01T23:40:25.380Z,9.61
2018-12-01T23:44:39.252Z,9.54
2018-12-01T23:48:54.726Z,9.41
2018-12-01T23:53:14.723Z,9.41
2018-12-01T23:57:29.092Z,9.36
